sensor_id;sensor_type;location;lat;lon;timestamp;P1;P2;P0
60058;PMS7003;45932;50.658;3.022;2022-07-10T00:00:46;4.00;3.67;2.67
60058;PMS7003;45932;50.658;3.022;2022-07-10T00:03:11;3.00;3.00;2.33
60058;PMS7003;45932;50.658;3.022;2022-07-10T00:05:36;3.67;3.67;2.33
60058;PMS7003;45932;50.658;3.022;2022-07-10T00:08:02;7.00;5.00;4.00
60058;PMS7003;45932;50.658;3.022;2022-07-10T00:10:27;3.00;3.00;2.00
60058;PMS7003;45932;50.658;3.022;2022-07-10T00:12:53;3.67;3.67;2.67
60058;PMS7003;45932;50.658;3.022;2022-07-10T00:15:19;4.33;4.33;3.00
60058;PMS7003;45932;50.658;3.022;2022-07-10T00:17:44;4.00;3.67;3.00
60058;PMS7003;45932;50.658;3.022;2022-07-10T00:20:10;5.33;5.00;3.33
60058;PMS7003;45932;50.658;3.022;2022-07-10T00:22:36;5.00;3.00;3.00
60058;PMS7003;45932;50.658;3.022;2022-07-10T00:25:03;3.33;3.33;3.00
60058;PMS7003;45932;50.658;3.022;2022-07-10T00:27:28;4.33;4.00;3.00
60058;PMS7003;45932;50.658;3.022;2022-07-10T00:29:53;6.00;5.00;3.00
60058;PMS7003;45932;50.658;3.022;2022-07-10T00:32:19;7.00;5.00;3.67
60058;PMS7003;45932;50.658;3.022;2022-07-10T00:34:44;5.00;5.00;3.67
60058;PMS7003;45932;50.658;3.022;2022-07-10T00:37:09;4.33;4.00;3.00
60058;PMS7003;45932;50.658;3.022;2022-07-10T00:39:34;3.00;2.67;2.00
60058;PMS7003;45932;50.658;3.022;2022-07-10T00:42:06;5.33;3.67;2.67
60058;PMS7003;45932;50.658;3.022;2022-07-10T00:44:32;5.00;4.00;3.00
60058;PMS7003;45932;50.658;3.022;2022-07-10T00:46:58;5.00;5.00;4.00
60058;PMS7003;45932;50.658;3.022;2022-07-10T00:49:24;6.00;4.00;3.00
60058;PMS7003;45932;50.658;3.022;2022-07-10T00:51:49;4.00;3.33;2.00
60058;PMS7003;45932;50.658;3.022;2022-07-10T00:54:14;5.00;5.00;3.00
60058;PMS7003;45932;50.658;3.022;2022-07-10T00:56:39;5.00;3.67;2.67
60058;PMS7003;45932;50.658;3.022;2022-07-10T00:59:07;5.00;3.00;2.00
60058;PMS7003;45932;50.658;3.022;2022-07-10T01:01:34;8.00;5.00;4.00
60058;PMS7003;45932;50.658;3.022;2022-07-10T01:03:59;5.00;4.33;3.00
60058;PMS7003;45932;50.658;3.022;2022-07-10T01:06:24;5.00;4.67;4.00
60058;PMS7003;45932;50.658;3.022;2022-07-10T01:08:50;2.67;2.67;2.00
60058;PMS7003;45932;50.658;3.022;2022-07-10T01:11:15;5.00;3.67;2.33
60058;PMS7003;45932;50.658;3.022;2022-07-10T01:13:41;4.67;4.67;3.67
60058;PMS7003;45932;50.658;3.022;2022-07-10T01:16:07;5.00;5.00;3.33
60058;PMS7003;45932;50.658;3.022;2022-07-10T01:18:32;2.67;2.67;2.00
60058;PMS7003;45932;50.658;3.022;2022-07-10T01:20:57;4.67;3.33;2.00
60058;PMS7003;45932;50.658;3.022;2022-07-10T01:23:22;4.67;4.67;4.00
60058;PMS7003;45932;50.658;3.022;2022-07-10T01:25:48;6.67;5.00;4.67
60058;PMS7003;45932;50.658;3.022;2022-07-10T01:28:14;4.33;4.00;3.00
60058;PMS7003;45932;50.658;3.022;2022-07-10T01:30:40;4.67;4.00;4.00
60058;PMS7003;45932;50.658;3.022;2022-07-10T01:33:06;4.00;3.00;2.50
60058;PMS7003;45932;50.658;3.022;2022-07-10T01:35:31;5.00;4.00;3.00
60058;PMS7003;45932;50.658;3.022;2022-07-10T01:37:56;4.33;4.00;3.00
60058;PMS7003;45932;50.658;3.022;2022-07-10T01:40:21;4.00;4.00;3.00
60058;PMS7003;45932;50.658;3.022;2022-07-10T01:42:46;4.67;4.67;4.00
60058;PMS7003;45932;50.658;3.022;2022-07-10T01:45:12;5.00;4.33;3.00
60058;PMS7003;45932;50.658;3.022;2022-07-10T01:47:37;5.33;4.00;3.00
60058;PMS7003;45932;50.658;3.022;2022-07-10T01:50:02;5.00;3.67;3.00
60058;PMS7003;45932;50.658;3.022;2022-07-10T01:52:28;4.67;4.33;3.00
60058;PMS7003;45932;50.658;3.022;2022-07-10T01:54:53;3.67;3.67;3.00
60058;PMS7003;45932;50.658;3.022;2022-07-10T01:57:18;4.00;4.00;3.00
60058;PMS7003;45932;50.658;3.022;2022-07-10T01:59:43;4.00;4.00;3.00
60058;PMS7003;45932;50.658;3.022;2022-07-10T02:02:09;5.00;4.00;3.33
60058;PMS7003;45932;50.658;3.022;2022-07-10T02:04:45;6.00;5.67;4.00
60058;PMS7003;45932;50.658;3.022;2022-07-10T02:07:12;4.00;4.00;3.33
60058;PMS7003;45932;50.658;3.022;2022-07-10T02:09:38;4.00;4.00;3.00
60058;PMS7003;45932;50.658;3.022;2022-07-10T02:12:06;7.67;6.67;4.00
60058;PMS7003;45932;50.658;3.022;2022-07-10T02:14:32;6.33;6.00;5.00
60058;PMS7003;45932;50.658;3.022;2022-07-10T02:16:57;5.00;5.00;5.00
60058;PMS7003;45932;50.658;3.022;2022-07-10T02:19:23;7.33;5.67;4.67
60058;PMS7003;45932;50.658;3.022;2022-07-10T02:21:48;5.67;5.67;4.67
60058;PMS7003;45932;50.658;3.022;2022-07-10T02:24:13;9.67;6.67;5.00
60058;PMS7003;45932;50.658;3.022;2022-07-10T02:26:38;6.00;4.00;3.00
60058;PMS7003;45932;50.658;3.022;2022-07-10T02:29:04;7.33;7.33;4.67
60058;PMS7003;45932;50.658;3.022;2022-07-10T02:31:29;6.00;6.00;4.00
60058;PMS7003;45932;50.658;3.022;2022-07-10T02:33:54;6.00;5.00;4.00
60058;PMS7003;45932;50.658;3.022;2022-07-10T02:36:19;6.67;5.67;4.33
60058;PMS7003;45932;50.658;3.022;2022-07-10T02:38:45;4.67;4.67;3.00
60058;PMS7003;45932;50.658;3.022;2022-07-10T02:41:10;9.33;7.00;4.00
60058;PMS7003;45932;50.658;3.022;2022-07-10T02:43:35;5.00;5.00;4.00
60058;PMS7003;45932;50.658;3.022;2022-07-10T02:46:00;8.67;8.00;6.00
60058;PMS7003;45932;50.658;3.022;2022-07-10T02:48:26;8.33;7.00;5.00
60058;PMS7003;45932;50.658;3.022;2022-07-10T02:50:52;6.00;6.00;4.33
60058;PMS7003;45932;50.658;3.022;2022-07-10T02:53:17;6.67;6.67;5.00
60058;PMS7003;45932;50.658;3.022;2022-07-10T02:55:42;5.33;5.33;4.33
60058;PMS7003;45932;50.658;3.022;2022-07-10T02:58:07;7.33;6.00;4.00
60058;PMS7003;45932;50.658;3.022;2022-07-10T03:00:34;7.67;6.00;4.00
60058;PMS7003;45932;50.658;3.022;2022-07-10T03:02:59;6.67;6.67;5.33
60058;PMS7003;45932;50.658;3.022;2022-07-10T03:05:25;4.67;4.00;4.00
60058;PMS7003;45932;50.658;3.022;2022-07-10T03:07:50;8.00;8.00;5.00
60058;PMS7003;45932;50.658;3.022;2022-07-10T03:10:15;8.00;7.33;5.33
60058;PMS7003;45932;50.658;3.022;2022-07-10T03:12:40;10.00;8.33;5.00
60058;PMS7003;45932;50.658;3.022;2022-07-10T03:15:05;8.00;6.67;4.67
60058;PMS7003;45932;50.658;3.022;2022-07-10T03:17:31;8.33;7.00;5.00
60058;PMS7003;45932;50.658;3.022;2022-07-10T03:19:56;9.00;6.00;5.00
60058;PMS7003;45932;50.658;3.022;2022-07-10T03:22:21;7.00;7.00;5.00
60058;PMS7003;45932;50.658;3.022;2022-07-10T03:24:47;6.00;6.00;4.33
60058;PMS7003;45932;50.658;3.022;2022-07-10T03:27:15;6.33;6.33;6.00
60058;PMS7003;45932;50.658;3.022;2022-07-10T03:29:40;6.33;5.67;4.00
60058;PMS7003;45932;50.658;3.022;2022-07-10T03:32:05;7.00;6.00;4.33
60058;PMS7003;45932;50.658;3.022;2022-07-10T03:34:31;6.67;6.67;5.33
60058;PMS7003;45932;50.658;3.022;2022-07-10T03:36:58;6.00;6.00;4.33
60058;PMS7003;45932;50.658;3.022;2022-07-10T03:39:23;10.00;9.00;5.00
60058;PMS7003;45932;50.658;3.022;2022-07-10T03:41:49;9.67;6.00;5.00
60058;PMS7003;45932;50.658;3.022;2022-07-10T03:44:14;6.67;6.33;5.00
60058;PMS7003;45932;50.658;3.022;2022-07-10T03:46:39;7.00;7.00;6.00
60058;PMS7003;45932;50.658;3.022;2022-07-10T03:49:04;6.00;6.00;5.00
60058;PMS7003;45932;50.658;3.022;2022-07-10T03:51:30;9.67;7.00;5.00
60058;PMS7003;45932;50.658;3.022;2022-07-10T03:53:55;9.33;7.33;4.67
60058;PMS7003;45932;50.658;3.022;2022-07-10T03:56:20;1.00;1.00;1.00
60058;PMS7003;45932;50.658;3.022;2022-07-10T03:59:04;6.00;5.33;5.00
60058;PMS7003;45932;50.658;3.022;2022-07-10T04:01:29;5.00;5.00;5.00
60058;PMS7003;45932;50.658;3.022;2022-07-10T04:03:55;8.67;7.33;5.00
60058;PMS7003;45932;50.658;3.022;2022-07-10T04:06:20;7.00;7.00;6.00
60058;PMS7003;45932;50.658;3.022;2022-07-10T04:08:45;8.67;8.67;7.33
60058;PMS7003;45932;50.658;3.022;2022-07-10T04:11:11;8.33;7.00;5.00
60058;PMS7003;45932;50.658;3.022;2022-07-10T04:13:36;9.00;8.00;5.67
60058;PMS7003;45932;50.658;3.022;2022-07-10T04:16:02;8.67;6.00;4.33
60058;PMS7003;45932;50.658;3.022;2022-07-10T04:18:27;5.00;5.00;3.67
60058;PMS7003;45932;50.658;3.022;2022-07-10T04:20:52;7.00;7.00;5.67
60058;PMS7003;45932;50.658;3.022;2022-07-10T04:23:18;8.00;7.67;5.00
60058;PMS7003;45932;50.658;3.022;2022-07-10T04:25:43;8.00;6.00;5.00
60058;PMS7003;45932;50.658;3.022;2022-07-10T04:28:08;6.33;5.00;4.33
60058;PMS7003;45932;50.658;3.022;2022-07-10T04:30:33;8.00;6.33;5.00
60058;PMS7003;45932;50.658;3.022;2022-07-10T04:32:58;9.33;9.33;5.67
60058;PMS7003;45932;50.658;3.022;2022-07-10T04:35:24;7.00;7.00;5.00
60058;PMS7003;45932;50.658;3.022;2022-07-10T04:37:49;5.33;5.33;4.00
60058;PMS7003;45932;50.658;3.022;2022-07-10T04:40:14;11.00;9.00;5.67
60058;PMS7003;45932;50.658;3.022;2022-07-10T04:42:39;9.00;9.00;5.00
60058;PMS7003;45932;50.658;3.022;2022-07-10T04:45:04;8.67;8.67;6.00
60058;PMS7003;45932;50.658;3.022;2022-07-10T04:47:30;8.67;7.67;5.33
60058;PMS7003;45932;50.658;3.022;2022-07-10T04:49:55;8.00;8.00;6.00
60058;PMS7003;45932;50.658;3.022;2022-07-10T04:52:20;8.33;7.33;5.00
60058;PMS7003;45932;50.658;3.022;2022-07-10T04:54:45;6.67;6.00;4.33
60058;PMS7003;45932;50.658;3.022;2022-07-10T04:57:11;8.00;7.00;5.00
60058;PMS7003;45932;50.658;3.022;2022-07-10T04:59:36;9.67;9.67;6.00
60058;PMS7003;45932;50.658;3.022;2022-07-10T05:02:01;8.33;7.00;5.67
60058;PMS7003;45932;50.658;3.022;2022-07-10T05:04:26;9.00;9.00;6.00
60058;PMS7003;45932;50.658;3.022;2022-07-10T05:06:51;8.67;8.67;6.00
60058;PMS7003;45932;50.658;3.022;2022-07-10T05:09:17;8.00;7.33;5.00
60058;PMS7003;45932;50.658;3.022;2022-07-10T05:11:44;11.00;10.33;6.00
60058;PMS7003;45932;50.658;3.022;2022-07-10T05:14:10;10.00;10.00;7.00
60058;PMS7003;45932;50.658;3.022;2022-07-10T05:16:35;8.67;8.67;6.00
60058;PMS7003;45932;50.658;3.022;2022-07-10T05:19:00;9.33;7.67;5.00
60058;PMS7003;45932;50.658;3.022;2022-07-10T05:21:25;9.00;7.67;5.67
60058;PMS7003;45932;50.658;3.022;2022-07-10T05:23:50;10.33;9.33;6.67
60058;PMS7003;45932;50.658;3.022;2022-07-10T05:26:16;10.00;9.67;6.00
60058;PMS7003;45932;50.658;3.022;2022-07-10T05:28:41;8.33;8.00;5.67
60058;PMS7003;45932;50.658;3.022;2022-07-10T05:31:06;12.00;8.33;6.00
60058;PMS7003;45932;50.658;3.022;2022-07-10T05:33:31;11.00;9.67;7.67
60058;PMS7003;45932;50.658;3.022;2022-07-10T05:35:57;9.67;9.67;5.67
60058;PMS7003;45932;50.658;3.022;2022-07-10T05:38:22;10.33;8.67;6.33
60058;PMS7003;45932;50.658;3.022;2022-07-10T05:40:47;9.33;9.33;7.33
60058;PMS7003;45932;50.658;3.022;2022-07-10T05:43:13;8.33;7.67;5.00
60058;PMS7003;45932;50.658;3.022;2022-07-10T05:45:39;7.67;7.67;4.67
60058;PMS7003;45932;50.658;3.022;2022-07-10T05:48:04;9.00;9.00;6.67
60058;PMS7003;45932;50.658;3.022;2022-07-10T05:50:29;6.00;6.00;5.00
60058;PMS7003;45932;50.658;3.022;2022-07-10T05:52:55;5.00;5.00;4.00
60058;PMS7003;45932;50.658;3.022;2022-07-10T05:55:20;8.00;7.67;5.33
60058;PMS7003;45932;50.658;3.022;2022-07-10T05:57:45;6.67;6.67;5.33
60058;PMS7003;45932;50.658;3.022;2022-07-10T06:00:11;6.67;6.67;5.00
60058;PMS7003;45932;50.658;3.022;2022-07-10T06:02:36;8.00;6.33;5.00
60058;PMS7003;45932;50.658;3.022;2022-07-10T06:05:01;9.00;9.00;5.00
60058;PMS7003;45932;50.658;3.022;2022-07-10T06:07:27;10.00;8.33;6.67
60058;PMS7003;45932;50.658;3.022;2022-07-10T06:09:52;7.00;6.33;5.00
60058;PMS7003;45932;50.658;3.022;2022-07-10T06:12:17;8.67;8.67;6.00
60058;PMS7003;45932;50.658;3.022;2022-07-10T06:14:43;6.00;5.00;5.00
60058;PMS7003;45932;50.658;3.022;2022-07-10T06:17:08;7.00;6.33;5.33
60058;PMS7003;45932;50.658;3.022;2022-07-10T06:19:33;6.67;6.67;4.33
60058;PMS7003;45932;50.658;3.022;2022-07-10T06:21:58;11.00;9.00;5.00
60058;PMS7003;45932;50.658;3.022;2022-07-10T06:24:42;4.00;4.00;3.67
60058;PMS7003;45932;50.658;3.022;2022-07-10T06:27:07;6.33;5.33;3.00
60058;PMS7003;45932;50.658;3.022;2022-07-10T06:29:33;5.00;5.00;4.00
60058;PMS7003;45932;50.658;3.022;2022-07-10T06:31:58;5.33;5.33;4.00
60058;PMS7003;45932;50.658;3.022;2022-07-10T06:34:23;4.67;3.33;3.00
60058;PMS7003;45932;50.658;3.022;2022-07-10T06:36:48;3.33;3.33;3.00
60058;PMS7003;45932;50.658;3.022;2022-07-10T06:39:13;5.00;5.00;4.00
60058;PMS7003;45932;50.658;3.022;2022-07-10T06:41:38;7.00;5.33;4.67
60058;PMS7003;45932;50.658;3.022;2022-07-10T06:44:04;3.67;3.67;3.00
60058;PMS7003;45932;50.658;3.022;2022-07-10T06:46:29;6.33;5.67;4.00
60058;PMS7003;45932;50.658;3.022;2022-07-10T06:48:55;6.67;5.00;4.00
60058;PMS7003;45932;50.658;3.022;2022-07-10T06:51:30;8.00;4.33;3.00
60058;PMS7003;45932;50.658;3.022;2022-07-10T06:58:59;4.00;4.00;3.33
60058;PMS7003;45932;50.658;3.022;2022-07-10T07:01:24;5.00;4.67;3.00
60058;PMS7003;45932;50.658;3.022;2022-07-10T07:03:49;3.00;3.00;2.67
60058;PMS7003;45932;50.658;3.022;2022-07-10T07:06:14;2.00;2.00;1.33
60058;PMS7003;45932;50.658;3.022;2022-07-10T07:08:40;2.00;2.00;2.00
60058;PMS7003;45932;50.658;3.022;2022-07-10T07:11:05;2.00;2.00;2.00
60058;PMS7003;45932;50.658;3.022;2022-07-10T07:13:30;2.33;2.33;2.00
60058;PMS7003;45932;50.658;3.022;2022-07-10T07:15:55;2.00;2.00;1.00
60058;PMS7003;45932;50.658;3.022;2022-07-10T07:18:25;2.00;2.00;1.33
60058;PMS7003;45932;50.658;3.022;2022-07-10T07:21:13;2.00;2.00;1.33
60058;PMS7003;45932;50.658;3.022;2022-07-10T07:23:57;2.67;2.00;1.33
60058;PMS7003;45932;50.658;3.022;2022-07-10T07:26:22;3.00;2.00;1.33
60058;PMS7003;45932;50.658;3.022;2022-07-10T07:28:47;1.33;1.33;1.33
60058;PMS7003;45932;50.658;3.022;2022-07-10T07:31:13;4.33;3.00;2.00
60058;PMS7003;45932;50.658;3.022;2022-07-10T07:33:38;1.67;1.67;1.00
60058;PMS7003;45932;50.658;3.022;2022-07-10T07:36:04;1.00;1.00;1.00
60058;PMS7003;45932;50.658;3.022;2022-07-10T07:38:29;5.00;4.00;3.00
60058;PMS7003;45932;50.658;3.022;2022-07-10T07:40:54;5.00;4.00;2.67
60058;PMS7003;45932;50.658;3.022;2022-07-10T07:43:19;2.33;2.33;1.00
60058;PMS7003;45932;50.658;3.022;2022-07-10T07:45:44;3.67;2.00;2.00
60058;PMS7003;45932;50.658;3.022;2022-07-10T07:48:09;2.00;2.00;2.00
60058;PMS7003;45932;50.658;3.022;2022-07-10T07:50:35;5.00;3.33;1.67
60058;PMS7003;45932;50.658;3.022;2022-07-10T07:53:01;2.00;2.00;2.00
60058;PMS7003;45932;50.658;3.022;2022-07-10T07:55:27;5.67;3.33;2.33
60058;PMS7003;45932;50.658;3.022;2022-07-10T07:57:53;5.00;3.00;2.00
60058;PMS7003;45932;50.658;3.022;2022-07-10T08:00:19;3.67;3.67;2.00
60058;PMS7003;45932;50.658;3.022;2022-07-10T08:02:46;3.00;2.00;2.00
60058;PMS7003;45932;50.658;3.022;2022-07-10T08:05:12;2.33;2.00;2.00
60058;PMS7003;45932;50.658;3.022;2022-07-10T08:07:40;2.00;2.00;2.00
60058;PMS7003;45932;50.658;3.022;2022-07-10T08:10:10;3.67;2.67;2.00
60058;PMS7003;45932;50.658;3.022;2022-07-10T08:12:36;2.67;2.67;2.00
60058;PMS7003;45932;50.658;3.022;2022-07-10T08:15:01;2.00;2.00;1.00
60058;PMS7003;45932;50.658;3.022;2022-07-10T08:17:26;2.00;2.00;2.00
60058;PMS7003;45932;50.658;3.022;2022-07-10T08:19:52;3.00;3.00;2.00
60058;PMS7003;45932;50.658;3.022;2022-07-10T08:22:17;3.00;3.00;2.00
60058;PMS7003;45932;50.658;3.022;2022-07-10T08:24:42;4.33;4.33;3.67
60058;PMS7003;45932;50.658;3.022;2022-07-10T08:27:07;3.00;3.00;2.00
60058;PMS7003;45932;50.658;3.022;2022-07-10T08:29:33;3.00;3.00;1.00
60058;PMS7003;45932;50.658;3.022;2022-07-10T08:31:58;3.00;2.33;2.00
60058;PMS7003;45932;50.658;3.022;2022-07-10T08:34:23;5.67;3.00;2.00
60058;PMS7003;45932;50.658;3.022;2022-07-10T08:36:48;3.00;2.00;1.00
60058;PMS7003;45932;50.658;3.022;2022-07-10T08:39:14;2.00;2.00;2.00
60058;PMS7003;45932;50.658;3.022;2022-07-10T08:41:41;2.33;2.33;2.00
60058;PMS7003;45932;50.658;3.022;2022-07-10T08:44:07;3.00;2.67;2.33
60058;PMS7003;45932;50.658;3.022;2022-07-10T08:46:33;2.00;2.00;2.00
60058;PMS7003;45932;50.658;3.022;2022-07-10T08:49:00;2.33;2.33;2.00
60058;PMS7003;45932;50.658;3.022;2022-07-10T08:51:32;2.00;2.00;1.33
60058;PMS7003;45932;50.658;3.022;2022-07-10T08:54:00;2.00;2.00;1.67
60058;PMS7003;45932;50.658;3.022;2022-07-10T08:56:25;2.00;2.00;1.00
60058;PMS7003;45932;50.658;3.022;2022-07-10T08:58:50;3.00;2.00;1.33
60058;PMS7003;45932;50.658;3.022;2022-07-10T09:01:16;3.00;2.00;1.67
60058;PMS7003;45932;50.658;3.022;2022-07-10T09:03:47;2.00;2.00;2.00
60058;PMS7003;45932;50.658;3.022;2022-07-10T09:06:13;1.67;1.67;1.67
60058;PMS7003;45932;50.658;3.022;2022-07-10T09:08:38;3.00;3.00;2.00
60058;PMS7003;45932;50.658;3.022;2022-07-10T09:11:22;1.67;1.33;1.00
60058;PMS7003;45932;50.658;3.022;2022-07-10T09:13:57;3.00;3.00;2.00
60058;PMS7003;45932;50.658;3.022;2022-07-10T09:16:23;3.00;2.00;1.00
60058;PMS7003;45932;50.658;3.022;2022-07-10T09:18:48;3.00;3.00;2.33
60058;PMS7003;45932;50.658;3.022;2022-07-10T09:21:13;2.00;2.00;2.00
60058;PMS7003;45932;50.658;3.022;2022-07-10T09:23:38;2.33;2.00;2.00
60058;PMS7003;45932;50.658;3.022;2022-07-10T09:26:04;1.67;1.67;1.00
60058;PMS7003;45932;50.658;3.022;2022-07-10T09:28:29;2.00;2.00;2.00
60058;PMS7003;45932;50.658;3.022;2022-07-10T09:30:54;2.67;2.33;2.00
60058;PMS7003;45932;50.658;3.022;2022-07-10T09:35:56;4.33;3.33;2.00
60058;PMS7003;45932;50.658;3.022;2022-07-10T09:46:16;3.00;3.00;2.00
60058;PMS7003;45932;50.658;3.022;2022-07-10T09:48:42;2.00;2.00;2.00
60058;PMS7003;45932;50.658;3.022;2022-07-10T09:51:07;1.00;1.00;1.00
60058;PMS7003;45932;50.658;3.022;2022-07-10T09:53:37;4.00;4.00;2.00
60058;PMS7003;45932;50.658;3.022;2022-07-10T09:56:03;4.67;3.33;2.67
60058;PMS7003;45932;50.658;3.022;2022-07-10T09:58:31;3.00;3.00;2.00
60058;PMS7003;45932;50.658;3.022;2022-07-10T10:00:57;2.00;2.00;1.33
60058;PMS7003;45932;50.658;3.022;2022-07-10T10:03:23;2.67;2.67;2.00
60058;PMS7003;45932;50.658;3.022;2022-07-10T10:08:16;2.00;2.00;1.00
60058;PMS7003;45932;50.658;3.022;2022-07-10T10:10:46;4.33;3.67;2.00
60058;PMS7003;45932;50.658;3.022;2022-07-10T10:13:12;1.33;1.33;1.33
60058;PMS7003;45932;50.658;3.022;2022-07-10T10:15:40;2.00;2.00;2.00
60058;PMS7003;45932;50.658;3.022;2022-07-10T10:18:07;3.67;3.00;2.00
60058;PMS7003;45932;50.658;3.022;2022-07-10T10:20:33;4.00;4.00;2.00
60058;PMS7003;45932;50.658;3.022;2022-07-10T10:23:02;2.33;2.33;1.67
60058;PMS7003;45932;50.658;3.022;2022-07-10T10:25:28;3.00;3.00;1.67
60058;PMS7003;45932;50.658;3.022;2022-07-10T10:27:56;3.00;3.00;2.00
60058;PMS7003;45932;50.658;3.022;2022-07-10T10:30:22;2.33;2.33;2.00
60058;PMS7003;45932;50.658;3.022;2022-07-10T10:32:48;2.00;2.00;2.00
60058;PMS7003;45932;50.658;3.022;2022-07-10T10:35:41;2.33;2.33;2.00
60058;PMS7003;45932;50.658;3.022;2022-07-10T10:37:58;3.33;3.33;2.33
60058;PMS7003;45932;50.658;3.022;2022-07-10T10:40:30;2.00;2.00;1.00
60058;PMS7003;45932;50.658;3.022;2022-07-10T10:42:56;2.00;2.00;1.00
60058;PMS7003;45932;50.658;3.022;2022-07-10T10:48:01;3.00;2.33;1.67
60058;PMS7003;45932;50.658;3.022;2022-07-10T10:51:09;4.00;2.33;2.00
60058;PMS7003;45932;50.658;3.022;2022-07-10T10:56:26;2.00;2.00;1.00
60058;PMS7003;45932;50.658;3.022;2022-07-10T10:58:27;1.00;1.00;1.00
60058;PMS7003;45932;50.658;3.022;2022-07-10T11:01:02;4.33;4.33;3.00
60058;PMS7003;45932;50.658;3.022;2022-07-10T11:03:27;2.33;2.33;2.00
60058;PMS7003;45932;50.658;3.022;2022-07-10T11:05:52;2.33;2.33;1.67
60058;PMS7003;45932;50.658;3.022;2022-07-10T11:11:09;2.00;2.00;2.00
60058;PMS7003;45932;50.658;3.022;2022-07-10T11:13:47;2.67;2.67;2.00
60058;PMS7003;45932;50.658;3.022;2022-07-10T11:16:12;2.00;2.00;2.00
60058;PMS7003;45932;50.658;3.022;2022-07-10T11:18:38;1.67;1.67;1.00
60058;PMS7003;45932;50.658;3.022;2022-07-10T11:21:04;1.67;1.00;1.00
60058;PMS7003;45932;50.658;3.022;2022-07-10T11:26:02;3.33;2.00;1.00
60058;PMS7003;45932;50.658;3.022;2022-07-10T11:31:03;2.67;2.67;1.67
60058;PMS7003;45932;50.658;3.022;2022-07-10T11:33:29;3.33;2.33;2.00
60058;PMS7003;45932;50.658;3.022;2022-07-10T11:36:03;3.33;2.00;2.00
60058;PMS7003;45932;50.658;3.022;2022-07-10T11:38:34;3.33;1.67;1.33
60058;PMS7003;45932;50.658;3.022;2022-07-10T11:41:00;2.00;2.00;1.33
60058;PMS7003;45932;50.658;3.022;2022-07-10T11:43:25;2.00;2.00;2.00
60058;PMS7003;45932;50.658;3.022;2022-07-10T11:45:50;3.00;3.00;2.00
60058;PMS7003;45932;50.658;3.022;2022-07-10T11:48:17;2.00;2.00;1.00
60058;PMS7003;45932;50.658;3.022;2022-07-10T11:50:43;1.67;1.67;1.00
60058;PMS7003;45932;50.658;3.022;2022-07-10T11:53:08;1.00;1.00;1.00
60058;PMS7003;45932;50.658;3.022;2022-07-10T11:55:33;5.67;4.00;2.67
60058;PMS7003;45932;50.658;3.022;2022-07-10T11:58:12;2.00;2.00;1.00
60058;PMS7003;45932;50.658;3.022;2022-07-10T12:00:37;4.00;1.50;1.50
60058;PMS7003;45932;50.658;3.022;2022-07-10T12:03:15;9.33;8.33;7.33
60058;PMS7003;45932;50.658;3.022;2022-07-10T12:05:40;2.33;2.33;1.33
60058;PMS7003;45932;50.658;3.022;2022-07-10T12:08:06;2.00;2.00;2.00
60058;PMS7003;45932;50.658;3.022;2022-07-10T12:10:32;2.00;2.00;1.00
60058;PMS7003;45932;50.658;3.022;2022-07-10T12:13:07;2.00;2.00;1.33
60058;PMS7003;45932;50.658;3.022;2022-07-10T12:15:33;1.67;1.67;1.33
60058;PMS7003;45932;50.658;3.022;2022-07-10T12:17:58;3.00;3.00;3.00
60058;PMS7003;45932;50.658;3.022;2022-07-10T12:20:24;6.00;6.00;5.00
60058;PMS7003;45932;50.658;3.022;2022-07-10T12:22:49;2.33;2.33;2.00
60058;PMS7003;45932;50.658;3.022;2022-07-10T12:25:14;2.00;2.00;1.33
60058;PMS7003;45932;50.658;3.022;2022-07-10T12:27:40;2.00;1.00;1.00
60058;PMS7003;45932;50.658;3.022;2022-07-10T12:30:06;2.00;2.00;2.00
60058;PMS7003;45932;50.658;3.022;2022-07-10T12:32:31;2.00;2.00;1.67
60058;PMS7003;45932;50.658;3.022;2022-07-10T12:34:58;2.00;2.00;2.00
60058;PMS7003;45932;50.658;3.022;2022-07-10T12:37:23;2.33;2.33;2.00
60058;PMS7003;45932;50.658;3.022;2022-07-10T12:39:49;1.00;1.00;1.00
60058;PMS7003;45932;50.658;3.022;2022-07-10T12:42:24;2.67;2.67;2.00
60058;PMS7003;45932;50.658;3.022;2022-07-10T12:44:49;2.33;1.00;1.00
60058;PMS7003;45932;50.658;3.022;2022-07-10T12:47:15;1.67;1.67;1.00
60058;PMS7003;45932;50.658;3.022;2022-07-10T12:49:54;1.00;1.00;1.00
60058;PMS7003;45932;50.658;3.022;2022-07-10T12:52:20;1.00;1.00;1.00
60058;PMS7003;45932;50.658;3.022;2022-07-10T12:54:45;1.00;1.00;1.00
60058;PMS7003;45932;50.658;3.022;2022-07-10T12:57:10;1.00;1.00;0.00
60058;PMS7003;45932;50.658;3.022;2022-07-10T12:59:36;2.00;1.00;1.00
60058;PMS7003;45932;50.658;3.022;2022-07-10T13:02:14;1.00;1.00;1.00
60058;PMS7003;45932;50.658;3.022;2022-07-10T13:04:51;1.00;1.00;1.00
60058;PMS7003;45932;50.658;3.022;2022-07-10T13:07:16;1.00;1.00;1.00
60058;PMS7003;45932;50.658;3.022;2022-07-10T13:09:41;2.33;1.33;1.00
60058;PMS7003;45932;50.658;3.022;2022-07-10T13:12:08;1.00;1.00;0.00
60058;PMS7003;45932;50.658;3.022;2022-07-10T13:14:33;1.33;1.33;1.00
60058;PMS7003;45932;50.658;3.022;2022-07-10T13:16:59;1.00;1.00;0.33
60058;PMS7003;45932;50.658;3.022;2022-07-10T13:19:24;0.67;0.67;0.33
60058;PMS7003;45932;50.658;3.022;2022-07-10T13:21:50;1.00;1.00;1.00
60058;PMS7003;45932;50.658;3.022;2022-07-10T13:24:16;1.33;1.33;0.67
60058;PMS7003;45932;50.658;3.022;2022-07-10T13:26:41;1.33;1.00;1.00
60058;PMS7003;45932;50.658;3.022;2022-07-10T13:29:06;0.00;0.00;0.00
60058;PMS7003;45932;50.658;3.022;2022-07-10T13:31:32;1.00;1.00;1.00
60058;PMS7003;45932;50.658;3.022;2022-07-10T13:33:57;1.00;1.00;1.00
60058;PMS7003;45932;50.658;3.022;2022-07-10T13:36:22;1.00;1.00;1.00
60058;PMS7003;45932;50.658;3.022;2022-07-10T13:38:48;2.00;1.00;1.00
60058;PMS7003;45932;50.658;3.022;2022-07-10T13:41:14;1.00;1.00;0.33
60058;PMS7003;45932;50.658;3.022;2022-07-10T13:43:40;1.00;1.00;0.00
60058;PMS7003;45932;50.658;3.022;2022-07-10T13:46:05;0.67;0.67;0.67
60058;PMS7003;45932;50.658;3.022;2022-07-10T13:48:30;0.33;0.33;0.00
60058;PMS7003;45932;50.658;3.022;2022-07-10T13:50:55;0.33;0.33;0.33
60058;PMS7003;45932;50.658;3.022;2022-07-10T13:53:21;1.00;1.00;0.33
60058;PMS7003;45932;50.658;3.022;2022-07-10T13:55:47;3.00;2.00;1.00
60058;PMS7003;45932;50.658;3.022;2022-07-10T13:58:13;1.00;1.00;0.00
60058;PMS7003;45932;50.658;3.022;2022-07-10T14:00:38;1.00;1.00;0.33
60058;PMS7003;45932;50.658;3.022;2022-07-10T14:03:04;6.00;5.00;4.00
60058;PMS7003;45932;50.658;3.022;2022-07-10T14:05:29;1.67;1.67;1.00
60058;PMS7003;45932;50.658;3.022;2022-07-10T14:07:54;7.00;7.00;5.00
60058;PMS7003;45932;50.658;3.022;2022-07-10T14:10:20;76.00;60.75;36.75
60058;PMS7003;45932;50.658;3.022;2022-07-10T14:12:45;230.50;194.00;107.50
60058;PMS7003;45932;50.658;3.022;2022-07-10T14:15:12;138.00;117.00;68.00
60058;PMS7003;45932;50.658;3.022;2022-07-10T14:17:37;45.25;36.25;22.50
60058;PMS7003;45932;50.658;3.022;2022-07-10T14:20:02;415.25;370.75;217.50
60058;PMS7003;45932;50.658;3.022;2022-07-10T14:22:27;149.50;132.25;76.00
60058;PMS7003;45932;50.658;3.022;2022-07-10T14:24:53;211.50;188.00;98.00
60058;PMS7003;45932;50.658;3.022;2022-07-10T14:27:19;201.00;170.50;89.50
60058;PMS7003;45932;50.658;3.022;2022-07-10T14:29:44;182.00;156.50;90.50
60058;PMS7003;45932;50.658;3.022;2022-07-10T14:32:09;448.50;365.25;167.25
60058;PMS7003;45932;50.658;3.022;2022-07-10T14:34:34;617.00;514.75;225.00
60058;PMS7003;45932;50.658;3.022;2022-07-10T14:37:00;427.67;361.33;181.33
60058;PMS7003;45932;50.658;3.022;2022-07-10T14:39:25;145.00;123.25;65.75
60058;PMS7003;45932;50.658;3.022;2022-07-10T14:41:51;87.25;81.75;46.00
60058;PMS7003;45932;50.658;3.022;2022-07-10T14:44:16;126.67;113.33;70.00